aviador You're here:

OICM Decoded Metar

MEHRAN in IRAN
Report Time2017-10-22 16:00:00
UTC Time2017-10-22 17:05:19
Flight Rules vfr VFR
Wind270° at 04 kt
W.Rank270° ranks 6
Current wind is below 270° avg. (5.4)
Visibility9999 m
Phenomena:N/A
Clouds:N/A
Expected CloudBase > 14,000 ft AGL from Temp-Dew spread
CeilingNone
Temp26°C
Dew Point-9°C (9% RH)
AAT21.6°C
QNH1010 hPa
Raw Report
METAR OICM 221600Z 27004KT CAVOK 26/M09 Q1010=

Extra information for OICM:More info

Social comments